createdAt,value
2018-06-29T00:02:48.655Z,5.00
2018-06-29T00:05:53.050Z,4.20
2018-06-29T00:08:57.533Z,5.03
2018-06-29T00:12:01.958Z,3.73
2018-06-29T00:15:06.302Z,4.83
2018-06-29T00:18:10.669Z,4.73
2018-06-29T00:21:14.985Z,5.37
2018-06-29T00:24:19.574Z,3.87
2018-06-29T00:27:24.572Z,4.63
2018-06-29T00:30:29.997Z,6.07
2018-06-29T00:33:34.343Z,4.70
2018-06-29T00:36:38.599Z,5.43
2018-06-29T00:39:42.940Z,3.57
2018-06-29T00:42:47.247Z,4.10
2018-06-29T00:45:51.608Z,4.10
2018-06-29T00:48:55.896Z,8.30
2018-06-29T00:52:00.241Z,4.13
2018-06-29T00:55:04.757Z,4.40
2018-06-29T00:58:08.933Z,6.73
2018-06-29T01:01:13.299Z,5.97
2018-06-29T01:04:17.623Z,5.40
2018-06-29T01:07:22.128Z,5.30
2018-06-29T01:10:26.462Z,6.53
2018-06-29T01:13:30.757Z,5.07
2018-06-29T01:16:35.155Z,6.80
2018-06-29T01:19:39.488Z,9.77
2018-06-29T01:22:43.741Z,6.83
2018-06-29T01:25:48.118Z,7.43
2018-06-29T01:28:52.455Z,6.00
2018-06-29T01:31:56.944Z,5.93
2018-06-29T01:35:01.325Z,8.13
2018-06-29T01:38:05.680Z,7.77
2018-06-29T01:41:10.073Z,7.83
2018-06-29T01:44:14.357Z,5.83
2018-06-29T01:47:18.724Z,6.40
2018-06-29T01:50:23.122Z,10.60
2018-06-29T01:53:27.405Z,7.13
2018-06-29T01:56:31.708Z,6.73
2018-06-29T01:59:36.057Z,6.67
2018-06-29T02:02:40.398Z,8.87
2018-06-29T02:05:44.723Z,7.23
2018-06-29T02:08:49.031Z,8.80
2018-06-29T02:11:53.343Z,8.53
2018-06-29T02:14:57.679Z,10.10
2018-06-29T02:18:01.948Z,9.17
2018-06-29T02:21:06.342Z,10.03
2018-06-29T02:24:10.632Z,9.40
2018-06-29T02:27:15.048Z,9.13
2018-06-29T02:30:19.462Z,9.93
2018-06-29T02:33:23.685Z,9.70
2018-06-29T02:36:28.004Z,10.20
2018-06-29T02:39:32.274Z,12.17
2018-06-29T02:42:37.584Z,12.13
2018-06-29T02:45:42.087Z,14.33
2018-06-29T02:48:46.388Z,8.50
2018-06-29T02:51:50.649Z,9.10
2018-06-29T02:54:55.089Z,12.17
2018-06-29T02:57:59.500Z,9.23
2018-06-29T03:01:03.877Z,10.83
2018-06-29T03:04:08.194Z,9.13
2018-06-29T03:07:12.519Z,12.20
2018-06-29T03:10:16.793Z,10.77
2018-06-29T03:13:21.132Z,9.90
2018-06-29T03:16:26.428Z,11.47
2018-06-29T03:19:30.753Z,12.17
2018-06-29T03:22:35.153Z,10.27
2018-06-29T03:25:39.451Z,11.50
2018-06-29T03:28:43.781Z,13.07
2018-06-29T03:31:48.056Z,9.83
2018-06-29T03:34:52.456Z,12.07
2018-06-29T03:37:56.833Z,11.53
2018-06-29T03:41:01.094Z,11.70
2018-06-29T03:44:05.599Z,10.03
2018-06-29T03:47:09.844Z,11.67
2018-06-29T03:50:14.121Z,12.33
2018-06-29T03:53:18.425Z,12.80
2018-06-29T03:56:22.700Z,10.07
2018-06-29T03:59:26.961Z,11.33
2018-06-29T04:02:31.313Z,9.10
2018-06-29T04:05:35.600Z,8.63
2018-06-29T04:08:39.922Z,14.43
2018-06-29T04:11:44.367Z,12.43
2018-06-29T04:14:48.688Z,11.47
2018-06-29T04:17:52.994Z,12.37
2018-06-29T04:20:57.400Z,12.83
2018-06-29T04:24:01.964Z,9.10
2018-06-29T04:27:06.377Z,9.93
2018-06-29T04:30:10.796Z,13.40
2018-06-29T04:33:15.148Z,12.90
2018-06-29T04:36:19.512Z,11.47
2018-06-29T04:39:23.828Z,12.40
2018-06-29T04:42:28.108Z,13.87
2018-06-29T04:45:32.475Z,11.27
2018-06-29T04:48:36.965Z,15.93
2018-06-29T04:51:41.310Z,10.50
2018-06-29T04:54:45.668Z,13.50
2018-06-29T04:57:49.987Z,15.77
2018-06-29T05:00:54.369Z,11.37
2018-06-29T05:04:02.866Z,13.13
2018-06-29T05:07:07.212Z,13.20
2018-06-29T05:10:11.515Z,14.77
2018-06-29T05:13:15.780Z,13.17
2018-06-29T05:16:20.053Z,11.83
2018-06-29T05:19:29.325Z,12.20
2018-06-29T05:22:33.638Z,13.47
2018-06-29T05:25:37.962Z,18.67
2018-06-29T05:28:42.270Z,12.23
2018-06-29T05:31:46.578Z,10.57
2018-06-29T05:34:50.825Z,13.60
2018-06-29T05:37:55.215Z,12.43
2018-06-29T05:40:59.711Z,13.07
2018-06-29T05:44:04.804Z,11.07
2018-06-29T05:47:09.251Z,13.47
2018-06-29T05:50:13.662Z,17.47
2018-06-29T05:53:18.065Z,13.70
2018-06-29T05:56:22.370Z,10.87
2018-06-29T05:59:26.696Z,8.50
2018-06-29T06:02:31.086Z,12.93
2018-06-29T06:05:35.386Z,8.80
2018-06-29T06:08:39.840Z,11.10
2018-06-29T06:11:44.193Z,13.63
2018-06-29T06:14:48.616Z,11.20
2018-06-29T06:17:53.097Z,11.07
2018-06-29T06:20:57.539Z,9.60
2018-06-29T06:24:01.872Z,10.13
2018-06-29T06:27:06.169Z,12.67
2018-06-29T06:30:10.557Z,12.37
2018-06-29T06:33:15.047Z,12.07
2018-06-29T06:36:19.225Z,8.03
2018-06-29T06:39:23.594Z,14.70
2018-06-29T06:42:28.055Z,14.87
2018-06-29T06:45:32.563Z,14.60
2018-06-29T06:48:36.917Z,11.70
2018-06-29T06:51:41.484Z,12.63
2018-06-29T06:54:46.010Z,12.30
2018-06-29T06:57:50.605Z,10.60
2018-06-29T07:00:54.970Z,10.10
2018-06-29T07:03:59.461Z,11.60
2018-06-29T07:07:03.884Z,10.90
2018-06-29T07:10:08.249Z,9.37
2018-06-29T07:13:12.604Z,9.27
2018-06-29T07:16:16.959Z,9.93
2018-06-29T07:19:21.465Z,12.73
2018-06-29T07:22:25.902Z,13.00
2018-06-29T07:25:30.234Z,8.93
2018-06-29T07:28:34.529Z,11.00
2018-06-29T07:31:38.819Z,11.67
2018-06-29T07:34:43.191Z,11.30
2018-06-29T07:37:47.551Z,9.93
2018-06-29T07:40:51.872Z,11.33
2018-06-29T07:43:56.330Z,10.70
2018-06-29T07:47:00.630Z,9.70
2018-06-29T07:50:05.875Z,10.63
2018-06-29T07:53:10.276Z,8.73
2018-06-29T07:56:14.681Z,9.67
2018-06-29T07:59:19.231Z,9.77
2018-06-29T08:02:23.766Z,9.63
2018-06-29T08:05:28.086Z,9.60
2018-06-29T08:08:32.698Z,9.80
2018-06-29T08:11:37.312Z,11.40
2018-06-29T08:14:41.703Z,11.13
2018-06-29T08:17:46.423Z,10.43
2018-06-29T08:20:50.990Z,10.00
2018-06-29T08:23:55.816Z,23.20
2018-06-29T08:27:00.288Z,11.33
2018-06-29T08:30:05.118Z,10.73
2018-06-29T08:33:09.731Z,7.90
2018-06-29T08:36:14.094Z,9.93
2018-06-29T08:39:18.632Z,10.03
2018-06-29T08:42:23.293Z,10.00
2018-06-29T08:45:27.609Z,9.83
2018-06-29T08:48:32.203Z,9.50
2018-06-29T08:51:36.544Z,9.13
2018-06-29T08:54:40.894Z,7.50
2018-06-29T08:57:45.512Z,5.70
2018-06-29T09:00:50.211Z,9.37
2018-06-29T09:03:54.850Z,6.27
2018-06-29T09:06:59.229Z,7.43
2018-06-29T09:10:03.575Z,5.97
2018-06-29T09:13:08.120Z,6.00
2018-06-29T09:16:12.312Z,5.30
2018-06-29T09:19:17.063Z,5.53
2018-06-29T09:22:21.363Z,7.90
2018-06-29T09:25:26.253Z,6.53
2018-06-29T09:28:31.094Z,2.67
2018-06-29T09:31:40.041Z,4.77
2018-06-29T09:34:44.702Z,4.50
2018-06-29T09:37:49.005Z,4.37
2018-06-29T09:40:53.814Z,4.17
2018-06-29T09:43:58.419Z,5.07
2018-06-29T09:47:02.897Z,2.97
2018-06-29T09:50:07.384Z,3.60
2018-06-29T09:53:11.705Z,6.37
2018-06-29T09:56:16.218Z,6.50
2018-06-29T09:59:20.613Z,3.47
2018-06-29T10:02:31.688Z,4.30
2018-06-29T10:05:29.750Z,5.87
2018-06-29T10:08:34.056Z,2.30
2018-06-29T10:11:38.512Z,13.30
2018-06-29T10:14:43.410Z,3.37
2018-06-29T10:17:47.755Z,5.77
2018-06-29T10:20:52.084Z,3.37
2018-06-29T10:23:56.691Z,2.07
2018-06-29T10:27:05.355Z,4.20
2018-06-29T10:30:10.354Z,2.37
2018-06-29T10:33:16.469Z,5.20
2018-06-29T10:36:20.806Z,3.03
2018-06-29T10:39:25.478Z,4.07
2018-06-29T10:42:30.520Z,4.73
2018-06-29T10:45:35.392Z,5.70
2018-06-29T10:48:39.909Z,10.30
2018-06-29T10:51:44.229Z,3.47
2018-06-29T10:54:48.803Z,3.90
2018-06-29T10:57:53.203Z,4.57
2018-06-29T11:00:57.798Z,4.60
2018-06-29T11:04:04.586Z,3.83
2018-06-29T11:07:12.902Z,4.57
2018-06-29T11:10:17.973Z,4.23
2018-06-29T11:13:22.419Z,3.57
2018-06-29T11:16:27.116Z,2.70
2018-06-29T11:19:32.916Z,1.37
2018-06-29T11:22:37.358Z,1.60
2018-06-29T11:25:42.366Z,2.00
2018-06-29T11:28:46.852Z,2.93
2018-06-29T11:31:51.411Z,3.07
2018-06-29T11:34:56.007Z,4.63
2018-06-29T11:38:00.393Z,1.97
2018-06-29T11:41:05.481Z,6.43
2018-06-29T11:44:10.467Z,2.40
2018-06-29T11:47:14.950Z,3.37
2018-06-29T11:50:19.536Z,4.33
2018-06-29T11:53:23.904Z,1.20
2018-06-29T11:56:28.204Z,2.77
2018-06-29T11:59:32.453Z,1.70
2018-06-29T12:02:36.869Z,3.57
2018-06-29T12:05:41.346Z,6.43
2018-06-29T12:08:46.089Z,3.83
2018-06-29T12:11:50.702Z,2.03
2018-06-29T12:14:55.300Z,4.63
2018-06-29T12:17:59.838Z,3.27
2018-06-29T12:21:04.237Z,2.80
2018-06-29T12:24:09.286Z,2.43
2018-06-29T12:27:14.036Z,3.80
2018-06-29T12:30:18.539Z,2.20
2018-06-29T12:33:23.271Z,2.77
2018-06-29T12:36:27.966Z,1.87
2018-06-29T12:39:32.507Z,5.17
2018-06-29T12:42:37.160Z,1.13
2018-06-29T12:45:41.763Z,5.67
2018-06-29T12:48:46.835Z,4.93
2018-06-29T12:51:51.335Z,1.90
2018-06-29T12:54:55.991Z,3.57
2018-06-29T12:58:00.723Z,1.33
2018-06-29T13:01:05.232Z,2.27
2018-06-29T13:04:09.618Z,5.27
2018-06-29T13:07:14.292Z,3.00
2018-06-29T13:10:18.974Z,4.07
2018-06-29T13:13:23.644Z,1.50
2018-06-29T13:16:29.474Z,3.70
2018-06-29T13:19:34.151Z,3.50
2018-06-29T13:22:39.231Z,1.93
2018-06-29T13:25:43.979Z,1.90
2018-06-29T13:28:48.916Z,2.97
2018-06-29T13:31:55.638Z,2.13
2018-06-29T13:35:00.492Z,2.40
2018-06-29T13:38:05.756Z,4.00
2018-06-29T13:41:10.669Z,0.97
2018-06-29T13:44:15.335Z,0.90
2018-06-29T13:47:19.945Z,1.60
2018-06-29T13:50:24.594Z,1.10
2018-06-29T13:53:29.488Z,4.10
2018-06-29T13:56:34.132Z,5.07
2018-06-29T13:59:38.839Z,5.33
2018-06-29T14:02:43.636Z,0.97
2018-06-29T14:05:49.174Z,2.23
2018-06-29T14:08:54.433Z,1.20
2018-06-29T14:11:59.062Z,0.77
2018-06-29T14:15:03.937Z,1.17
2018-06-29T14:18:12.048Z,0.77
2018-06-29T14:21:16.773Z,1.70
2018-06-29T14:24:22.018Z,0.90
2018-06-29T14:27:28.715Z,2.40
2018-06-29T14:30:33.363Z,1.77
2018-06-29T14:33:38.055Z,1.90
2018-06-29T14:36:42.822Z,2.73
2018-06-29T14:39:47.380Z,1.60
2018-06-29T14:42:52.617Z,2.77
2018-06-29T14:45:57.779Z,7.07
2018-06-29T14:49:02.321Z,1.47
2018-06-29T14:52:07.175Z,2.90
2018-06-29T14:55:11.662Z,0.90
2018-06-29T14:58:17.346Z,3.23
2018-06-29T15:01:23.466Z,1.37
2018-06-29T15:04:28.440Z,3.33
2018-06-29T15:07:33.530Z,1.37
2018-06-29T15:10:38.171Z,1.33
2018-06-29T15:13:43.306Z,2.00
2018-06-29T15:16:48.061Z,2.03
2018-06-29T15:19:53.075Z,2.63
2018-06-29T15:22:57.893Z,0.83
2018-06-29T15:26:03.937Z,2.80
2018-06-29T15:29:08.614Z,1.37
2018-06-29T15:32:13.173Z,1.83
2018-06-29T15:35:18.141Z,1.80
2018-06-29T15:38:22.877Z,1.63
2018-06-29T15:41:27.607Z,0.73
2018-06-29T15:44:32.240Z,1.97
2018-06-29T15:47:37.101Z,1.53
2018-06-29T15:50:41.645Z,0.73
2018-06-29T15:53:46.437Z,1.50
2018-06-29T15:56:50.990Z,2.93
2018-06-29T15:59:55.925Z,0.50
2018-06-29T16:03:00.432Z,3.07
2018-06-29T16:06:05.439Z,0.80
2018-06-29T16:09:10.658Z,1.30
2018-06-29T16:12:15.207Z,1.17
2018-06-29T16:15:19.818Z,1.83
2018-06-29T16:18:24.476Z,1.07
2018-06-29T16:21:29.041Z,0.93
2018-06-29T16:24:33.568Z,1.83
2018-06-29T16:27:38.206Z,1.93
2018-06-29T16:30:42.886Z,1.33
2018-06-29T16:33:47.759Z,1.77
2018-06-29T16:36:52.398Z,0.83
2018-06-29T16:39:57.018Z,1.70
2018-06-29T16:43:01.490Z,4.03
2018-06-29T16:46:06.757Z,2.00
2018-06-29T16:49:11.525Z,2.13
2018-06-29T16:52:16.252Z,3.03
2018-06-29T16:55:20.877Z,3.13
2018-06-29T16:58:25.554Z,1.03
2018-06-29T17:01:30.068Z,1.93
2018-06-29T17:04:34.656Z,3.07
2018-06-29T17:07:39.279Z,4.07
2018-06-29T17:10:43.789Z,2.10
2018-06-29T17:13:48.628Z,1.40
2018-06-29T17:16:53.178Z,2.10
2018-06-29T17:19:59.043Z,1.47
2018-06-29T17:23:03.670Z,5.70
2018-06-29T17:26:08.493Z,0.83
2018-06-29T17:29:13.500Z,1.20
2018-06-29T17:32:18.396Z,4.50
2018-06-29T17:35:22.968Z,0.73
2018-06-29T17:38:27.775Z,2.67
2018-06-29T17:41:32.536Z,1.00
2018-06-29T17:44:37.025Z,2.67
2018-06-29T17:47:41.706Z,0.77
2018-06-29T17:50:46.506Z,3.33
2018-06-29T17:53:50.984Z,1.23
2018-06-29T17:56:55.510Z,1.00
2018-06-29T18:00:00.355Z,2.73
2018-06-29T18:03:04.863Z,6.07
2018-06-29T18:06:09.389Z,2.97
2018-06-29T18:09:13.854Z,0.93
2018-06-29T18:12:18.341Z,4.90
2018-06-29T18:15:22.772Z,5.03
2018-06-29T18:18:27.213Z,3.53
2018-06-29T18:21:31.729Z,5.10
2018-06-29T18:24:36.244Z,0.60
2018-06-29T18:27:40.767Z,1.20
2018-06-29T18:30:45.322Z,3.13
2018-06-29T18:33:50.050Z,1.50
2018-06-29T18:36:54.761Z,0.83
2018-06-29T18:39:59.382Z,0.60
2018-06-29T18:43:03.928Z,0.90
2018-06-29T18:46:08.556Z,1.37
2018-06-29T18:49:13.081Z,1.17
2018-06-29T18:52:17.799Z,1.53
2018-06-29T18:55:22.460Z,0.83
2018-06-29T18:58:27.378Z,1.03
2018-06-29T19:01:32.372Z,1.80
2018-06-29T19:04:36.969Z,3.93
2018-06-29T19:07:41.546Z,1.80
2018-06-29T19:10:46.077Z,2.57
2018-06-29T19:13:50.688Z,1.07
2018-06-29T19:16:55.269Z,2.40
2018-06-29T19:19:59.471Z,0.80
2018-06-29T19:23:04.151Z,2.03
2018-06-29T19:26:08.647Z,1.27
2018-06-29T19:29:13.435Z,1.07
2018-06-29T19:32:18.100Z,1.10
2018-06-29T19:35:22.709Z,3.80
2018-06-29T19:38:27.329Z,1.40
2018-06-29T19:41:31.939Z,1.70
2018-06-29T19:44:36.638Z,2.40
2018-06-29T19:47:41.200Z,1.33
2018-06-29T19:50:45.803Z,3.87
2018-06-29T19:53:50.340Z,0.70
2018-06-29T19:56:55.026Z,1.60
2018-06-29T19:59:59.826Z,1.27
2018-06-29T20:03:04.433Z,0.97
2018-06-29T20:06:08.942Z,3.23
2018-06-29T20:09:14.005Z,0.90
2018-06-29T20:12:18.431Z,4.87
2018-06-29T20:15:23.028Z,0.60
2018-06-29T20:18:27.672Z,1.07
2018-06-29T20:21:32.574Z,2.60
2018-06-29T20:24:37.088Z,1.97
2018-06-29T20:27:41.613Z,2.40
2018-06-29T20:30:46.159Z,2.27
2018-06-29T20:33:50.744Z,1.80
2018-06-29T20:36:55.131Z,1.60
2018-06-29T20:39:59.764Z,0.90
2018-06-29T20:43:04.299Z,2.10
2018-06-29T20:46:08.926Z,3.77
2018-06-29T20:49:13.502Z,1.00
2018-06-29T20:52:18.244Z,0.87
2018-06-29T20:55:22.853Z,1.67
2018-06-29T20:58:27.510Z,1.80
2018-06-29T21:01:32.109Z,0.93
2018-06-29T21:04:36.793Z,1.97
2018-06-29T21:07:41.230Z,0.43
2018-06-29T21:10:45.764Z,0.50
2018-06-29T21:13:50.407Z,1.10
2018-06-29T21:16:54.956Z,2.43
2018-06-29T21:19:59.474Z,2.73
2018-06-29T21:23:04.014Z,1.30
2018-06-29T21:26:08.670Z,2.93
2018-06-29T21:29:13.108Z,2.60
2018-06-29T21:32:17.654Z,1.13
2018-06-29T21:35:22.218Z,3.27
2018-06-29T21:38:26.782Z,2.30
2018-06-29T21:41:31.382Z,2.47
2018-06-29T21:44:36.036Z,1.70
2018-06-29T21:47:40.830Z,3.57
2018-06-29T21:50:45.458Z,3.30
2018-06-29T21:53:50.073Z,1.93
2018-06-29T21:56:54.829Z,2.80
2018-06-29T21:59:59.549Z,0.50
2018-06-29T22:03:10.364Z,1.00
2018-06-29T22:06:14.852Z,3.13
2018-06-29T22:09:19.513Z,1.33
2018-06-29T22:12:24.082Z,2.13
2018-06-29T22:15:29.773Z,1.30
2018-06-29T22:18:34.471Z,1.03
2018-06-29T22:21:39.087Z,1.33
2018-06-29T22:24:43.680Z,2.33
2018-06-29T22:27:48.729Z,1.80
2018-06-29T22:30:53.394Z,2.90
2018-06-29T22:33:58.007Z,1.77
2018-06-29T22:37:02.638Z,2.17
2018-06-29T22:40:08.004Z,2.87
2018-06-29T22:43:12.569Z,1.00
2018-06-29T22:46:17.748Z,1.60
2018-06-29T22:49:22.164Z,0.83
2018-06-29T22:52:26.794Z,2.00
2018-06-29T22:55:31.372Z,1.33
2018-06-29T22:58:35.901Z,1.93
2018-06-29T23:01:40.562Z,1.50
2018-06-29T23:04:45.143Z,2.17
2018-06-29T23:07:49.882Z,1.00
2018-06-29T23:10:54.414Z,2.17
2018-06-29T23:13:59.185Z,1.13
2018-06-29T23:17:03.753Z,1.53
2018-06-29T23:20:08.623Z,2.87
2018-06-29T23:23:13.146Z,1.90
2018-06-29T23:26:17.813Z,3.57
2018-06-29T23:29:22.293Z,2.80
2018-06-29T23:32:26.909Z,3.27
2018-06-29T23:35:31.408Z,3.70
2018-06-29T23:38:35.886Z,1.77
2018-06-29T23:41:40.616Z,2.47
2018-06-29T23:44:45.214Z,2.00
2018-06-29T23:47:49.854Z,2.73
2018-06-29T23:50:54.430Z,2.03
2018-06-29T23:53:59.313Z,1.67
2018-06-29T23:57:03.833Z,2.13
